Time;durP1;ratioP1;P1;durP2;ratioP2;P2;SDS_P1;SDS_P2;PMS_P1;PMS_P2;Temp;Humidity;BMP_temperature;BMP_pressure;BME280_temperature;BME280_humidity;BME280_pressure;Samples;Min_cycle;Max_cycle;Signal;HPM_P1;HPM_P2
2022/07/24 00:00:42;;;;;;;14.95;13.15;;;18.60;99.90;;;;;;5093781;28;20289;-80
2022/07/24 00:03:09;;;;;;;13.93;12.63;;;18.60;99.90;;;;;;5094130;28;20253;-80
2022/07/24 00:05:36;;;;;;;14.02;12.20;;;18.50;99.90;;;;;;5093676;28;20200;-80
2022/07/24 00:08:02;;;;;;;14.07;12.68;;;18.50;99.90;;;;;;5093469;28;20200;-80
2022/07/24 00:10:31;;;;;;;14.13;12.77;;;18.40;99.90;;;;;;5093746;28;20217;-80
2022/07/24 00:12:57;;;;;;;16.05;12.95;;;18.40;99.90;;;;;;5093603;28;20196;-80
2022/07/24 00:15:25;;;;;;;15.00;13.50;;;18.30;99.90;;;;;;5093435;28;20246;-80
2022/07/24 00:17:52;;;;;;;14.65;13.15;;;18.20;99.90;;;;;;5093589;28;20196;-81
2022/07/24 00:20:18;;;;;;;14.18;12.75;;;18.00;99.90;;;;;;5093341;28;20602;-81
2022/07/24 00:22:45;;;;;;;17.83;13.02;;;18.00;99.90;;;;;;5093142;28;20200;-80
2022/07/24 00:25:12;;;;;;;14.80;13.05;;;17.80;99.90;;;;;;5093794;28;20250;-80
2022/07/24 00:27:38;;;;;;;16.05;13.45;;;17.70;99.90;;;;;;5093305;28;20599;-80
2022/07/24 00:30:06;;;;;;;15.00;13.50;;;17.60;99.90;;;;;;5093306;28;20196;-80
2022/07/24 00:32:34;;;;;;;14.52;13.02;;;17.60;99.90;;;;;;5093200;28;20266;-80
2022/07/24 00:35:01;;;;;;;16.90;13.23;;;17.60;99.90;;;;;;5093112;28;20249;-80
2022/07/24 00:37:28;;;;;;;14.00;12.60;;;17.60;99.90;;;;;;5092952;28;20269;-80
2022/07/24 00:39:54;;;;;;;15.68;12.93;;;17.60;99.90;;;;;;5092838;28;20235;-80
2022/07/24 00:42:21;;;;;;;13.85;12.60;;;17.70;99.90;;;;;;5093111;28;20196;-80
2022/07/24 00:44:47;;;;;;;15.50;12.65;;;17.80;99.90;;;;;;5093068;28;20230;-80
2022/07/24 00:47:14;;;;;;;14.75;13.25;;;17.80;99.90;;;;;;5093009;28;20195;-80
2022/07/24 00:49:42;;;;;;;14.35;13.02;;;17.80;99.90;;;;;;5092848;28;20647;-80
2022/07/24 00:52:09;;;;;;;14.85;13.35;;;17.70;99.90;;;;;;5091672;28;20206;-80
2022/07/24 00:54:35;;;;;;;13.93;12.52;;;17.60;99.90;;;;;;5093024;28;20200;-81
2022/07/24 00:57:02;;;;;;;14.73;13.32;;;17.70;99.90;;;;;;5092826;28;20656;-80
2022/07/24 00:59:29;;;;;;;14.63;13.13;;;17.80;99.90;;;;;;5092809;28;20222;-81
2022/07/24 01:01:55;;;;;;;14.73;13.40;;;17.80;99.90;;;;;;5095620;28;20226;-81
2022/07/24 01:04:23;;;;;;;15.63;14.07;;;17.90;99.90;;;;;;5100570;28;20196;-80
2022/07/24 01:06:51;;;;;;;15.32;13.90;;;17.80;99.90;;;;;;5106772;28;20207;-81
2022/07/24 01:09:18;;;;;;;14.85;13.38;;;17.70;99.90;;;;;;5105274;28;20245;-81
2022/07/24 01:11:44;;;;;;;14.95;13.35;;;17.60;99.90;;;;;;5101991;28;20724;-80
2022/07/24 01:14:11;;;;;;;15.60;13.73;;;17.50;99.90;;;;;;5102368;28;20199;-81
2022/07/24 01:16:38;;;;;;;14.40;13.02;;;17.60;99.90;;;;;;5100926;28;20277;-81
2022/07/24 01:19:05;;;;;;;14.95;13.45;;;17.60;99.90;;;;;;5099494;28;20196;-80
2022/07/24 01:21:33;;;;;;;14.45;13.10;;;17.60;99.90;;;;;;5099513;28;20257;-81
2022/07/24 01:24:00;;;;;;;14.57;13.27;;;17.50;99.90;;;;;;5099526;28;20222;-80
2022/07/24 01:26:27;;;;;;;14.57;13.18;;;17.40;99.90;;;;;;5099366;28;20261;-81
2022/07/24 01:28:53;;;;;;;15.98;14.48;;;17.30;99.90;;;;;;5099355;28;20200;-80
2022/07/24 01:31:20;;;;;;;15.30;13.45;;;17.30;99.90;;;;;;5099325;28;20204;-80
2022/07/24 01:33:47;;;;;;;14.75;13.35;;;17.20;99.90;;;;;;5099212;28;20192;-81
2022/07/24 01:36:13;;;;;;;14.38;13.05;;;17.30;99.90;;;;;;5099379;28;20253;-80
2022/07/24 01:38:41;;;;;;;14.38;12.88;;;17.30;99.90;;;;;;5099253;28;20275;-80
2022/07/24 01:41:08;;;;;;;14.75;13.45;;;17.40;99.90;;;;;;5099379;28;20228;-81
2022/07/24 01:43:35;;;;;;;14.40;13.00;;;17.50;99.90;;;;;;5099291;28;20196;-81
2022/07/24 01:46:01;;;;;;;19.23;13.48;;;17.50;99.90;;;;;;5099169;28;20242;-80
2022/07/24 01:48:28;;;;;;;15.13;13.73;;;17.30;99.90;;;;;;5099317;28;20204;-80
2022/07/24 01:50:55;;;;;;;15.65;14.25;;;17.20;99.90;;;;;;5099329;28;20204;-81
2022/07/24 01:53:22;;;;;;;15.70;14.25;;;17.10;99.90;;;;;;5099361;28;20197;-81
2022/07/24 01:55:52;;;;;;;16.90;15.30;;;17.00;99.90;;;;;;5099138;28;20253;-81
2022/07/24 01:58:19;;;;;;;16.08;14.57;;;16.90;99.90;;;;;;5099117;28;20651;-81
2022/07/24 02:00:45;;;;;;;15.55;13.95;;;16.80;99.90;;;;;;5098877;28;20228;-81
2022/07/24 02:03:12;;;;;;;15.45;13.98;;;16.80;99.90;;;;;;5099281;28;20250;-80
2022/07/24 02:05:39;;;;;;;18.98;14.40;;;16.70;99.90;;;;;;5099153;28;20245;-81
2022/07/24 02:08:06;;;;;;;15.35;13.85;;;16.70;99.90;;;;;;5099042;28;20536;-81
2022/07/24 02:10:33;;;;;;;15.95;14.50;;;16.70;99.90;;;;;;5099203;28;20246;-80
2022/07/24 02:13:01;;;;;;;16.95;14.90;;;16.70;99.90;;;;;;5097100;28;20594;-80
2022/07/24 02:15:28;;;;;;;15.27;13.88;;;16.70;99.90;;;;;;5095801;28;20201;-81
2022/07/24 02:17:58;;;;;;;16.50;14.70;;;16.80;99.90;;;;;;5095892;28;20200;-81
2022/07/24 02:20:26;;;;;;;15.95;14.40;;;16.90;99.90;;;;;;5095750;28;20220;-81
2022/07/24 02:22:52;;;;;;;16.38;14.73;;;16.80;99.90;;;;;;5095825;28;20204;-81
2022/07/24 02:25:19;;;;;;;15.23;13.82;;;16.80;99.90;;;;;;5095620;28;20196;-81
2022/07/24 02:27:46;;;;;;;16.15;14.65;;;16.80;99.90;;;;;;5095632;28;20245;-80
2022/07/24 02:30:17;;;;;;;15.90;14.35;;;16.70;99.90;;;;;;5095829;28;20204;-80
2022/07/24 02:32:44;;;;;;;17.10;15.50;;;16.70;99.90;;;;;;5095678;28;20200;-80
2022/07/24 02:35:11;;;;;;;16.27;14.52;;;16.70;99.90;;;;;;5095538;28;20196;-81
2022/07/24 02:37:38;;;;;;;16.92;15.20;;;16.70;99.90;;;;;;5095511;28;20208;-80
2022/07/24 02:40:07;;;;;;;19.98;14.52;;;16.90;99.90;;;;;;5095197;28;20224;-80
2022/07/24 02:42:34;;;;;;;16.52;14.93;;;16.80;99.90;;;;;;5095374;28;20196;-81
2022/07/24 02:45:00;;;;;;;16.35;14.57;;;16.80;99.90;;;;;;5095391;28;20197;-80
2022/07/24 02:47:28;;;;;;;15.45;14.00;;;16.90;99.90;;;;;;5095130;28;20589;-81
2022/07/24 02:49:55;;;;;;;15.23;13.60;;;16.90;99.90;;;;;;5095181;28;20204;-81
2022/07/24 02:52:21;;;;;;;15.65;14.10;;;16.90;99.90;;;;;;5095153;28;20249;-80
2022/07/24 02:54:49;;;;;;;16.45;14.95;;;16.70;99.90;;;;;;5094938;28;20250;-81
2022/07/24 02:57:15;;;;;;;16.20;14.55;;;16.70;99.90;;;;;;5095175;28;20537;-80
2022/07/24 02:59:43;;;;;;;16.38;14.77;;;16.50;99.90;;;;;;5094871;28;20713;-80
2022/07/24 03:02:09;;;;;;;16.77;15.10;;;16.60;99.90;;;;;;5094964;28;20239;-80
2022/07/24 03:04:37;;;;;;;16.83;15.10;;;16.50;99.90;;;;;;5094935;28;20564;-81
2022/07/24 03:07:04;;;;;;;15.25;13.75;;;16.40;99.90;;;;;;5094750;28;20242;-81
2022/07/24 03:09:31;;;;;;;16.70;15.00;;;16.40;99.90;;;;;;5094611;28;20196;-80
2022/07/24 03:11:57;;;;;;;16.30;14.70;;;16.60;99.90;;;;;;5099051;28;20196;-81
2022/07/24 03:14:24;;;;;;;16.27;14.77;;;16.60;99.90;;;;;;5108124;28;20218;-80
2022/07/24 03:16:51;;;;;;;16.73;14.70;;;16.70;99.90;;;;;;5095083;28;20600;-81
2022/07/24 03:19:17;;;;;;;15.32;13.82;;;16.60;99.90;;;;;;5094651;28;20222;-81
2022/07/24 03:21:45;;;;;;;15.77;14.18;;;16.50;99.90;;;;;;5094366;28;20621;-80
2022/07/24 03:24:12;;;;;;;16.05;14.10;;;16.50;99.90;;;;;;5093686;28;20200;-80
2022/07/24 03:26:38;;;;;;;14.63;12.77;;;16.40;99.90;;;;;;5094339;28;20598;-80
2022/07/24 03:29:05;;;;;;;15.07;13.57;;;16.30;99.90;;;;;;5094658;28;20245;-81
2022/07/24 03:31:31;;;;;;;13.98;12.65;;;16.20;99.90;;;;;;5094421;28;20253;-80
2022/07/24 03:33:58;;;;;;;13.40;12.20;;;16.20;99.90;;;;;;5094361;28;20261;-81
2022/07/24 03:36:25;;;;;;;15.15;13.73;;;16.10;99.90;;;;;;5094113;28;20242;-80
2022/07/24 03:38:53;;;;;;;15.30;13.80;;;16.10;99.90;;;;;;5094259;28;20257;-81
2022/07/24 03:41:19;;;;;;;14.50;13.10;;;16.00;99.90;;;;;;5094234;28;20224;-80
2022/07/24 03:43:46;;;;;;;14.65;13.18;;;16.00;99.90;;;;;;5094139;28;20196;-80
2022/07/24 03:46:12;;;;;;;13.90;12.55;;;16.00;99.90;;;;;;5094077;28;20651;-80
2022/07/24 03:48:39;;;;;;;14.67;13.33;;;15.90;99.90;;;;;;5094020;28;20250;-81
2022/07/24 03:51:06;;;;;;;16.10;13.80;;;15.90;99.90;;;;;;5093899;28;20222;-80
2022/07/24 03:53:33;;;;;;;16.48;14.88;;;15.80;99.90;;;;;;5094093;28;20728;-80
2022/07/24 03:56:01;;;;;;;16.63;15.02;;;15.70;99.90;;;;;;5093985;28;20594;-80
2022/07/24 03:58:27;;;;;;;17.83;15.95;;;15.80;99.90;;;;;;5093900;28;20207;-81
2022/07/24 04:00:54;;;;;;;17.35;15.20;;;16.00;99.90;;;;;;5093846;28;20265;-81
2022/07/24 04:03:21;;;;;;;17.17;15.52;;;16.00;99.90;;;;;;5093773;28;20575;-80
2022/07/24 04:05:47;;;;;;;17.20;15.50;;;15.90;99.90;;;;;;5093537;28;20605;-80
2022/07/24 04:08:14;;;;;;;17.40;15.53;;;15.90;99.90;;;;;;5093671;28;20254;-79
2022/07/24 04:10:41;;;;;;;15.98;14.48;;;15.90;99.90;;;;;;5093629;28;20200;-80
2022/07/24 04:13:09;;;;;;;15.87;14.40;;;15.90;99.90;;;;;;5093609;28;20279;-80
2022/07/24 04:15:35;;;;;;;17.10;15.50;;;15.80;99.90;;;;;;5093497;28;20254;-80
2022/07/24 04:18:02;;;;;;;17.50;15.60;;;15.90;99.90;;;;;;5093444;28;20201;-79
2022/07/24 04:20:29;;;;;;;16.70;15.07;;;15.90;99.90;;;;;;5093534;28;20196;-80
2022/07/24 04:22:55;;;;;;;15.68;14.18;;;15.90;99.90;;;;;;5093679;28;20211;-80
2022/07/24 04:25:22;;;;;;;15.60;14.00;;;15.90;99.90;;;;;;5093411;28;20200;-80
2022/07/24 04:27:49;;;;;;;15.18;13.73;;;16.00;99.90;;;;;;5093425;28;20617;-80
2022/07/24 04:30:17;;;;;;;15.48;13.98;;;16.00;99.90;;;;;;5093296;28;20339;-81
2022/07/24 04:32:44;;;;;;;15.63;14.02;;;16.10;99.90;;;;;;5092969;28;20261;-80
2022/07/24 04:35:10;;;;;;;16.50;14.80;;;16.20;99.90;;;;;;5093353;28;20196;-80
2022/07/24 04:37:37;;;;;;;14.75;13.35;;;16.30;99.90;;;;;;5092578;28;20199;-80
2022/07/24 04:40:04;;;;;;;15.70;14.10;;;16.30;99.90;;;;;;5093018;28;20228;-80
2022/07/24 04:42:31;;;;;;;14.75;13.15;;;16.30;99.90;;;;;;5092987;28;20223;-80
2022/07/24 04:44:57;;;;;;;16.63;13.75;;;16.40;99.90;;;;;;5093104;28;20241;-80
2022/07/24 04:47:25;;;;;;;14.73;13.23;;;16.50;99.90;;;;;;5093109;28;20221;-81
2022/07/24 04:49:52;;;;;;;14.85;13.45;;;16.50;99.90;;;;;;5093197;28;20249;-80
2022/07/24 04:52:18;;;;;;;14.77;13.48;;;16.60;99.90;;;;;;5093241;28;20200;-80
2022/07/24 04:54:45;;;;;;;15.48;12.88;;;16.70;99.90;;;;;;5099421;28;20201;-80
2022/07/24 04:57:11;;;;;;;15.82;14.23;;;16.80;99.90;;;;;;5103229;28;20222;-79
2022/07/24 04:59:38;;;;;;;15.50;13.95;;;16.90;99.90;;;;;;5105135;28;20200;-80
2022/07/24 05:02:05;;;;;;;15.68;14.07;;;17.00;99.90;;;;;;5105635;28;20216;-80
2022/07/24 05:04:34;;;;;;;15.05;13.68;;;17.20;99.90;;;;;;5105214;28;20226;-81
2022/07/24 05:07:00;;;;;;;16.77;13.50;;;17.40;99.90;;;;;;5104352;28;20219;-81
2022/07/24 05:09:27;;;;;;;14.15;12.85;;;17.60;99.90;;;;;;5105381;28;20200;-80
2022/07/24 05:11:54;;;;;;;14.40;13.10;;;17.80;99.90;;;;;;5105948;28;20199;-80
2022/07/24 05:14:21;;;;;;;15.82;14.43;;;18.00;99.90;;;;;;5106508;28;20252;-81
2022/07/24 05:16:47;;;;;;;14.05;12.75;;;18.10;99.90;;;;;;5107985;28;20196;-80
2022/07/24 05:19:14;;;;;;;14.50;13.10;;;18.20;99.90;;;;;;5108031;28;20200;-81
2022/07/24 05:21:43;;;;;;;14.93;13.32;;;18.30;99.90;;;;;;5106543;28;20241;-81
2022/07/24 05:24:09;;;;;;;14.45;13.02;;;18.40;99.90;;;;;;5101403;28;20203;-81
2022/07/24 05:26:36;;;;;;;14.23;12.95;;;18.50;99.90;;;;;;5108497;28;20193;-81
2022/07/24 05:29:05;;;;;;;15.30;13.80;;;18.60;99.90;;;;;;5104407;28;20201;-81
2022/07/24 05:31:32;;;;;;;14.55;13.05;;;18.70;99.90;;;;;;5093525;28;20253;-81
2022/07/24 05:34:01;;;;;;;13.98;12.57;;;18.80;99.90;;;;;;5093096;28;20200;-81
2022/07/24 05:36:28;;;;;;;15.60;13.07;;;18.90;99.90;;;;;;5093033;28;20224;-80
2022/07/24 05:38:56;;;;;;;14.57;13.10;;;19.00;99.90;;;;;;5092647;28;20644;-81
2022/07/24 05:41:23;;;;;;;13.23;11.90;;;19.00;99.90;;;;;;5092501;28;20216;-80
2022/07/24 05:43:49;;;;;;;14.93;13.45;;;19.10;99.90;;;;;;5092881;28;20196;-81
2022/07/24 05:46:16;;;;;;;15.00;13.65;;;19.20;99.90;;;;;;5092915;28;20257;-80
2022/07/24 05:48:43;;;;;;;14.30;12.93;;;19.10;99.90;;;;;;5095366;28;20209;-81
2022/07/24 05:51:09;;;;;;;15.30;12.93;;;19.20;99.90;;;;;;5097494;28;20226;-80
2022/07/24 05:53:36;;;;;;;13.95;12.43;;;19.30;99.90;;;;;;5097348;28;20192;-81
2022/07/24 05:56:05;;;;;;;14.85;13.55;;;19.30;99.90;;;;;;5096236;28;20201;-80
2022/07/24 05:58:32;;;;;;;13.50;12.27;;;19.30;99.90;;;;;;5096174;28;20586;-81
2022/07/24 06:00:58;;;;;;;14.13;12.82;;;19.40;99.90;;;;;;5096008;28;20647;-81
2022/07/24 06:03:25;;;;;;;14.40;12.93;;;19.50;99.90;;;;;;5096262;28;20223;-81
2022/07/24 06:05:51;;;;;;;15.05;13.65;;;19.60;99.90;;;;;;5096118;28;20250;-81
2022/07/24 06:08:18;;;;;;;16.48;14.10;;;19.60;99.90;;;;;;5096055;28;20201;-81
2022/07/24 06:10:45;;;;;;;15.13;13.70;;;19.70;99.90;;;;;;5095789;28;20225;-81
2022/07/24 06:13:13;;;;;;;15.50;14.10;;;19.70;99.90;;;;;;5096007;28;20651;-81
2022/07/24 06:15:39;;;;;;;15.45;13.95;;;19.70;99.90;;;;;;5095832;28;20200;-81
2022/07/24 06:18:06;;;;;;;16.75;15.00;;;19.80;99.90;;;;;;5095875;28;20630;-81
2022/07/24 06:20:33;;;;;;;16.90;15.20;;;19.90;99.90;;;;;;5095886;28;20196;-81
2022/07/24 06:22:59;;;;;;;15.60;14.10;;;20.00;99.90;;;;;;5095588;28;20300;-80
2022/07/24 06:25:26;;;;;;;17.27;15.57;;;20.10;99.90;;;;;;5095501;28;20196;-81
2022/07/24 06:27:53;;;;;;;17.80;16.00;;;20.30;99.90;;;;;;5095742;28;20254;-80
2022/07/24 06:30:23;;;;;;;18.23;16.10;;;20.50;99.90;;;;;;5095623;28;20196;-81
2022/07/24 06:32:52;;;;;;;17.27;15.48;;;20.60;99.90;;;;;;5096018;28;20204;-81
2022/07/24 06:35:19;;;;;;;17.15;15.35;;;20.70;99.90;;;;;;5095530;28;20200;-81
2022/07/24 06:37:45;;;;;;;16.85;15.15;;;20.80;99.90;;;;;;5095518;28;20677;-81
2022/07/24 06:40:12;;;;;;;18.63;16.15;;;21.00;99.90;;;;;;5095401;28;20277;-81
2022/07/24 06:42:39;;;;;;;17.08;15.45;;;21.10;99.90;;;;;;5095221;28;20621;-81
2022/07/24 06:45:07;;;;;;;17.45;15.68;;;21.30;99.90;;;;;;5095481;28;20249;-81
2022/07/24 06:47:35;;;;;;;17.38;15.55;;;21.50;99.90;;;;;;5095444;28;20197;-81
2022/07/24 06:50:02;;;;;;;19.40;15.80;;;21.60;99.90;;;;;;5095233;28;20713;-81
2022/07/24 06:52:28;;;;;;;16.65;14.95;;;21.90;99.90;;;;;;5095156;28;20198;-81
2022/07/24 06:54:55;;;;;;;16.98;14.85;;;22.20;99.90;;;;;;5095349;28;20271;-80
2022/07/24 06:57:22;;;;;;;16.15;14.65;;;22.50;99.90;;;;;;5095108;28;20201;-81
2022/07/24 06:59:49;;;;;;;16.23;14.52;;;22.60;99.90;;;;;;5094462;28;20247;-81
2022/07/24 07:02:16;;;;;;;16.70;15.20;;;22.80;99.90;;;;;;5095055;28;20220;-81
2022/07/24 07:04:44;;;;;;;16.90;15.30;;;23.10;99.90;;;;;;5094869;28;20674;-81
2022/07/24 07:07:11;;;;;;;15.07;13.52;;;23.20;99.90;;;;;;5095122;28;20192;-81
2022/07/24 07:09:37;;;;;;;13.85;12.45;;;23.20;99.90;;;;;;5094858;28;20720;-81
2022/07/24 07:12:05;;;;;;;15.93;13.85;;;23.40;99.90;;;;;;5094789;28;20724;-81
2022/07/24 07:14:31;;;;;;;18.88;14.13;;;23.60;99.90;;;;;;5094759;28;20659;-81
2022/07/24 07:16:58;;;;;;;14.48;13.07;;;23.50;99.90;;;;;;5094759;28;20197;-81
2022/07/24 07:19:25;;;;;;;14.95;13.65;;;23.60;99.90;;;;;;5094707;28;20348;-80
2022/07/24 07:21:53;;;;;;;16.27;14.00;;;23.50;99.90;;;;;;5094795;28;20224;-81
2022/07/24 07:24:20;;;;;;;15.52;13.30;;;23.60;99.90;;;;;;5094684;28;20238;-81
2022/07/24 07:26:46;;;;;;;14.90;13.50;;;23.70;99.90;;;;;;5094806;28;20200;-81
2022/07/24 07:29:13;;;;;;;14.20;12.88;;;23.80;99.90;;;;;;5094452;28;20586;-81
2022/07/24 07:31:40;;;;;;;13.88;12.48;;;23.90;99.90;;;;;;5094436;28;20196;-81
2022/07/24 07:34:06;;;;;;;15.15;13.63;;;24.10;99.90;;;;;;5094394;28;20197;-81
2022/07/24 07:36:34;;;;;;;14.35;12.98;;;24.10;99.90;;;;;;5094507;28;20333;-81
2022/07/24 07:39:03;;;;;;;13.93;12.43;;;24.30;99.90;;;;;;5094576;28;20278;-82
2022/07/24 07:41:29;;;;;;;13.82;12.40;;;24.60;99.90;;;;;;5094793;28;20201;-82
2022/07/24 07:43:58;;;;;;;13.90;12.60;;;24.80;99.90;;;;;;5094944;28;20228;-81
2022/07/24 07:46:25;;;;;;;13.32;12.02;;;24.80;99.90;;;;;;5094098;28;20200;-81
2022/07/24 07:48:51;;;;;;;12.15;11.00;;;25.00;99.90;;;;;;5094221;28;20795;-81
2022/07/24 07:51:18;;;;;;;12.45;11.35;;;25.30;99.90;;;;;;5094212;28;20226;-81
2022/07/24 07:53:45;;;;;;;11.90;10.85;;;25.70;99.90;;;;;;5094191;28;20279;-80
2022/07/24 07:56:13;;;;;;;13.30;12.00;;;26.00;99.90;;;;;;5093862;28;20659;-80
2022/07/24 07:58:39;;;;;;;11.90;10.80;;;26.60;99.90;;;;;;5093942;28;20200;-81
2022/07/24 08:01:06;;;;;;;11.00;10.07;;;27.00;99.90;;;;;;5093835;28;20207;-81
2022/07/24 08:03:33;;;;;;;10.00;9.10;;;27.40;99.90;;;;;;5094015;28;20227;-81
2022/07/24 08:06:01;;;;;;;8.65;7.97;;;27.60;99.90;;;;;;5093827;28;20602;-81
2022/07/24 08:08:28;;;;;;;9.93;9.02;;;27.50;99.90;;;;;;5093602;28;20655;-80
2022/07/24 08:10:54;;;;;;;9.57;8.68;;;27.60;99.90;;;;;;5093043;28;20200;-80
2022/07/24 08:13:22;;;;;;;10.23;9.25;;;27.70;99.90;;;;;;5093487;28;20208;-81
2022/07/24 08:15:49;;;;;;;9.18;8.48;;;27.40;98.60;;;;;;5093757;28;20204;-81
2022/07/24 08:18:16;;;;;;;12.00;8.73;;;27.60;97.50;;;;;;5094579;28;20196;-80
2022/07/24 08:20:43;;;;;;;12.48;8.63;;;27.30;98.80;;;;;;5094561;28;20720;-81
2022/07/24 08:23:10;;;;;;;8.55;7.75;;;27.20;99.20;;;;;;5094566;28;20263;-80
2022/07/24 08:25:37;;;;;;;8.70;7.80;;;27.30;96.10;;;;;;5094460;28;20253;-80
2022/07/24 08:28:04;;;;;;;8.77;7.97;;;27.40;96.00;;;;;;5094201;28;20629;-80
2022/07/24 08:30:32;;;;;;;9.00;8.30;;;27.50;95.00;;;;;;5094534;28;20243;-81
2022/07/24 08:32:59;;;;;;;8.25;7.50;;;27.40;94.70;;;;;;5094512;28;20196;-82
2022/07/24 08:35:25;;;;;;;9.30;8.30;;;27.80;94.70;;;;;;5094419;28;20724;-81
2022/07/24 08:37:52;;;;;;;9.38;8.48;;;28.00;94.80;;;;;;5093623;28;20200;-82
2022/07/24 08:40:19;;;;;;;9.50;8.50;;;28.30;94.10;;;;;;5093133;28;20228;-82
2022/07/24 08:42:46;;;;;;;9.60;8.38;;;28.50;93.20;;;;;;5093063;28;20224;-81
2022/07/24 08:45:13;;;;;;;9.38;8.48;;;28.70;92.30;;;;;;5093284;28;20200;-82
2022/07/24 08:47:41;;;;;;;9.60;8.70;;;28.80;90.80;;;;;;5092936;28;20732;-81
2022/07/24 08:50:09;;;;;;;10.70;9.07;;;28.70;91.00;;;;;;5092860;28;20204;-80
2022/07/24 08:52:38;;;;;;;10.18;9.20;;;28.40;91.10;;;;;;5093301;28;20609;-82
2022/07/24 08:55:06;;;;;;;10.13;9.23;;;28.70;92.10;;;;;;5093133;28;20200;-79
2022/07/24 08:57:33;;;;;;;10.50;9.48;;;28.80;90.80;;;;;;5093087;28;20663;-81
2022/07/24 09:00:00;;;;;;;10.23;9.38;;;28.80;90.00;;;;;;5093131;28;20273;-80
2022/07/24 09:02:27;;;;;;;10.45;9.60;;;28.70;90.10;;;;;;5092823;28;20645;-82
2022/07/24 09:05:01;;;;;;;10.40;9.52;;;28.80;87.80;;;;;;5093022;28;20192;-81
2022/07/24 09:07:29;;;;;;;10.75;9.70;;;29.00;87.40;;;;;;5093034;28;20257;-82
2022/07/24 09:10:01;;;;;;;10.70;9.73;;;29.10;86.10;;;;;;5092786;28;20671;-81
2022/07/24 09:12:32;;;;;;;9.95;9.05;;;28.70;89.10;;;;;;5093062;28;20200;-81
2022/07/24 09:15:00;;;;;;;9.77;8.93;;;29.10;88.10;;;;;;5093024;28;20257;-81
2022/07/24 09:17:26;;;;;;;10.65;9.30;;;29.60;84.90;;;;;;5092889;28;20200;-82
2022/07/24 09:19:55;;;;;;;9.75;8.95;;;30.20;84.30;;;;;;5092785;28;20567;-82
2022/07/24 09:22:41;;;;;;;10.40;9.13;;;30.60;77.40;;;;;;5092994;28;20204;-82
2022/07/24 09:25:14;;;;;;;11.32;9.40;;;29.70;78.40;;;;;;5097186;28;20226;-82
2022/07/24 09:27:45;;;;;;;10.27;9.40;;;29.20;80.50;;;;;;5098060;28;20196;-81
2022/07/24 09:30:23;;;;;;;8.82;8.07;;;29.20;80.40;;;;;;5096733;28;20725;-81
2022/07/24 09:32:53;;;;;;;9.20;8.30;;;29.70;74.70;;;;;;5096735;28;20246;-81
2022/07/24 09:35:23;;;;;;;9.43;8.30;;;30.10;73.90;;;;;;5096848;28;20715;-80
2022/07/24 09:37:56;;;;;;;11.20;10.05;;;29.70;74.00;;;;;;5097676;28;20196;-81
2022/07/24 09:40:28;;;;;;;10.23;9.32;;;28.90;76.80;;;;;;5098091;28;20310;-82
2022/07/24 09:42:57;;;;;;;9.20;8.30;;;29.00;76.90;;;;;;5097213;28;20265;-81
2022/07/24 09:45:24;;;;;;;9.00;8.30;;;29.90;72.50;;;;;;5097051;28;20197;-81
2022/07/24 09:47:53;;;;;;;8.98;8.18;;;30.40;71.70;;;;;;5096684;28;20196;-81
2022/07/24 09:50:29;;;;;;;9.13;8.15;;;31.30;68.10;;;;;;5096436;28;20203;-81
2022/07/24 09:52:58;;;;;;;9.07;8.23;;;31.60;66.70;;;;;;5096367;28;20655;-80
2022/07/24 09:55:26;;;;;;;8.70;7.90;;;32.20;63.70;;;;;;5096348;28;20197;-80
2022/07/24 09:57:53;;;;;;;9.05;8.25;;;32.10;59.50;;;;;;5096201;28;20208;-80
2022/07/24 10:00:20;;;;;;;10.23;9.43;;;31.90;59.60;;;;;;5096412;28;20196;-81
2022/07/24 10:02:47;;;;;;;8.48;7.68;;;31.00;59.30;;;;;;5096224;28;20274;-80
2022/07/24 10:05:15;;;;;;;9.35;8.57;;;31.30;59.20;;;;;;5096151;28;20275;-80
2022/07/24 10:07:44;;;;;;;12.48;8.60;;;31.40;58.90;;;;;;5096081;28;20192;-80
2022/07/24 10:10:14;;;;;;;8.80;7.90;;;31.60;61.60;;;;;;5095984;28;20269;-80
2022/07/24 10:12:40;;;;;;;8.52;7.72;;;31.90;59.40;;;;;;5096257;28;20253;-80
2022/07/24 10:15:08;;;;;;;8.82;8.00;;;32.00;58.30;;;;;;5095826;28;20660;-80
2022/07/24 10:17:58;;;;;;;8.90;8.10;;;32.20;57.50;;;;;;5095954;28;20204;-81
2022/07/24 10:20:37;;;;;;;9.27;8.48;;;32.90;57.80;;;;;;5095785;28;20200;-80
2022/07/24 10:23:06;;;;;;;8.43;7.72;;;33.80;54.10;;;;;;5095963;28;20273;-81
2022/07/24 10:25:46;;;;;;;9.25;8.45;;;32.30;53.90;;;;;;5095845;28;20254;-81
2022/07/24 10:28:24;;;;;;;9.32;7.85;;;31.10;55.10;;;;;;5095815;28;20196;-80
2022/07/24 10:30:51;;;;;;;7.25;6.55;;;31.30;56.40;;;;;;5095608;28;20253;-81
2022/07/24 10:33:18;;;;;;;7.00;6.40;;;30.80;51.10;;;;;;5095524;28;20227;-80
2022/07/24 10:35:46;;;;;;;7.00;6.40;;;31.50;49.90;;;;;;5094532;28;20614;-80
2022/07/24 10:38:21;;;;;;;7.00;6.35;;;32.50;49.20;;;;;;5095614;28;20272;-81
2022/07/24 10:40:53;;;;;;;7.28;6.50;;;33.00;47.50;;;;;;5095268;28;20231;-81
2022/07/24 10:43:21;;;;;;;6.97;6.35;;;32.80;45.10;;;;;;5095489;28;20223;-80
2022/07/24 10:46:13;;;;;;;7.63;6.97;;;31.30;45.70;;;;;;5095373;28;20208;-80
2022/07/24 10:48:41;;;;;;;7.85;7.05;;;31.90;47.80;;;;;;5095511;28;20227;-81
2022/07/24 10:51:10;;;;;;;6.63;6.13;;;33.10;46.80;;;;;;5095392;28;20234;-81
2022/07/24 10:54:02;;;;;;;7.45;6.78;;;32.70;43.50;;;;;;5095202;28;20249;-80
2022/07/24 10:56:41;;;;;;;6.30;5.75;;;33.40;43.40;;;;;;5095204;28;20669;-80
2022/07/24 10:59:09;;;;;;;6.97;6.28;;;33.90;40.30;;;;;;5095352;28;20196;-79
2022/07/24 11:01:42;;;;;;;6.85;6.35;;;34.70;38.90;;;;;;5095145;28;20203;-81
2022/07/24 11:04:26;;;;;;;8.10;6.30;;;34.50;37.40;;;;;;5095348;28;20231;-80
2022/07/24 11:06:55;;;;;;;9.43;6.93;;;34.50;38.40;;;;;;5095470;28;20238;-80
2022/07/24 11:09:24;;;;;;;7.20;6.60;;;36.20;36.90;;;;;;5095260;28;20273;-80
2022/07/24 11:12:07;;;;;;;6.45;5.95;;;36.20;35.80;;;;;;5095403;28;20199;-80
2022/07/24 11:14:51;;;;;;;6.93;6.32;;;37.00;33.80;;;;;;5095008;28;20199;-79
2022/07/24 11:17:39;;;;;;;7.28;6.57;;;37.10;32.50;;;;;;5095213;28;20199;-80
2022/07/24 11:20:07;;;;;;;7.72;6.20;;;38.90;31.30;;;;;;5094825;28;20191;-80
2022/07/24 11:22:47;;;;;;;7.00;6.30;;;38.10;29.20;;;;;;5094720;28;20248;-79
2022/07/24 11:25:19;;;;;;;6.70;6.20;;;39.30;28.00;;;;;;5094837;28;20356;-80
2022/07/24 11:27:52;;;;;;;7.15;6.63;;;39.10;27.10;;;;;;5095010;28;20564;-81
2022/07/24 11:30:20;;;;;;;8.23;6.47;;;39.90;26.80;;;;;;5095032;28;20241;-82
2022/07/24 11:32:48;;;;;;;6.80;6.28;;;37.50;28.00;;;;;;5094682;28;20286;-82
2022/07/24 11:35:16;;;;;;;7.50;6.80;;;35.60;30.00;;;;;;5094430;28;20247;-82
2022/07/24 11:37:43;;;;;;;7.45;6.85;;;34.60;32.20;;;;;;5094321;28;20191;-81
2022/07/24 11:40:15;;;;;;;7.82;7.13;;;33.80;32.90;;;;;;5094166;28;20231;-81
2022/07/24 11:42:42;;;;;;;7.88;6.63;;;32.80;34.70;;;;;;5094389;28;20196;-81
2022/07/24 11:45:09;;;;;;;7.55;6.88;;;31.90;35.80;;;;;;5094135;28;20300;-80
2022/07/24 11:47:36;;;;;;;7.50;6.53;;;31.30;36.10;;;;;;5094117;28;20575;-80
2022/07/24 11:50:06;;;;;;;9.85;6.80;;;30.90;37.10;;;;;;5093962;28;20193;-80
2022/07/24 11:52:34;;;;;;;7.70;7.10;;;30.90;37.30;;;;;;5094454;28;20230;-81
2022/07/24 11:55:03;;;;;;;8.10;7.30;;;31.60;37.40;;;;;;5094169;28;20277;-81
2022/07/24 11:57:32;;;;;;;7.60;7.00;;;33.20;36.00;;;;;;5094021;28;20203;-80
2022/07/24 11:59:59;;;;;;;7.43;6.72;;;35.50;33.40;;;;;;5094011;28;20200;-81
2022/07/24 12:02:26;;;;;;;7.35;6.60;;;37.30;30.80;;;;;;5093914;28;20196;-80
2022/07/24 12:04:53;;;;;;;6.72;6.22;;;38.40;28.70;;;;;;5093571;28;20219;-81
2022/07/24 12:07:23;;;;;;;7.00;6.35;;;38.40;27.50;;;;;;5093942;28;20287;-81
2022/07/24 12:09:52;;;;;;;5.95;5.45;;;39.30;27.00;;;;;;5093646;28;20647;-81
2022/07/24 12:12:24;;;;;;;6.45;5.95;;;41.10;26.20;;;;;;5093747;28;20337;-81
2022/07/24 12:14:52;;;;;;;6.40;5.80;;;42.40;24.50;;;;;;5093791;28;20219;-81
2022/07/24 12:17:19;;;;;;;6.30;5.80;;;42.90;23.10;;;;;;5093623;28;20195;-81
2022/07/24 12:19:54;;;;;;;7.22;5.93;;;41.80;22.50;;;;;;5093802;28;20204;-81
2022/07/24 12:22:24;;;;;;;6.22;5.72;;;40.10;22.40;;;;;;5093749;28;20241;-81
2022/07/24 12:24:53;;;;;;;6.57;6.07;;;38.90;23.80;;;;;;5093381;28;20694;-81
2022/07/24 12:27:41;;;;;;;6.85;6.00;;;37.10;25.10;;;;;;5093396;28;20678;-81
2022/07/24 12:30:20;;;;;;;8.50;6.03;;;37.70;25.10;;;;;;5093634;28;20199;-81
2022/07/24 12:32:55;;;;;;;6.95;5.90;;;37.80;25.30;;;;;;5093558;28;20199;-81
2022/07/24 12:35:22;;;;;;;6.88;6.28;;;37.00;25.20;;;;;;5093338;28;20199;-81
2022/07/24 12:37:50;;;;;;;6.70;6.10;;;36.30;26.40;;;;;;5093389;28;20192;-81